George Island, Canada
Current Conditions -  °F | °C
As of 6:00 AM on Monday 22 Dec 2014 (Local Time) from CYNE Reporting Station
Haze Haze  
Wind Chill: 28°   Ceiling: 300
Heat Index: 28°   Visibility: 1mi
Dew Point: 28°   Wind: 3mph
Humidity: 100%   Direction: 40°NE
Pressure: 29.7"   Gusts: NA
Location:  52.82°N, 97.6°W
Report Text: CYNE 221200Z AUTO 04003KT 360V080 1SM BR OVC003 M02/M02 A2970 RMK SLP070
Loading
Personal Weather Stations






























Interactive Weather Map New forecast layout! Learn more

10-Day Weather Forecast

Advertisements
Track Severe Weather on mobile